Hurlburt Field
KHRT : now visible

Airfield :











YOU CAN JOIN US ON...

 
LOGIN :

Register | Disclaimer

   EN    FR    IT 

 









Legend :    VFR   Marginal VFR   IFR   Intensive IFR   Very Intensive IFR
Visi :
Ceiling :
>= 8 km
>= 3000ft
5 to 8 km
1000 to 3000 ft
1500m to 5 km
500 to 1000 ft
800 to 1500m
200 to 500 ft
< 800m
< 200 ft
Symbols :   Thunderstorms  Fog  Heavy snow  Heavy precipitations  Wind > 20 kt







- Airport Elevation : 38 ft


KHRT - Hurlburt Field

CURRENT METAR :
  • 181556Z 13013G18KT 10SM SCT012 BKN034 OVC045 23/20 A2994 RMK AO2A SLP140 T02320195 $

EXPIRED METARs :
  • 181456Z 14011KT 10SM SCT013 BKN036 23/19 A2994 RMK AO2A SLP140 T02270192 52028 $
  • 181356Z 13011G17KT 10SM SCT210 22/18 A2991 RMK AO2A SLP130 T02180182 $

TAF AMD TAF KHRT
Valid from the 18 at 15:00 until the 19 at 16:00 UTC


181542Z 1815/1916 13010G15KT 9999 SCT010 BKN035 BKN200 QNH2982INS
BECMG 1818/1819 13015G25KT 9999 BKN015 QNH2972INS
BECMG 1823/1824 14020G30KT 9999 BKN008 BKN080 BKN250 WS020/18050KT QNH2968INS
BECMG 1902/1903 16025G35KT 6000 SHRA VCTS BKN005 BKN060CB OVC180 QNH2963INS
TEMPO 1904/1907 18035G45KT 1600 +TSRA BR BKN005 OVC010CB
BECMG 1908/1909 22015G25KT 9999 VCSH BKN010 OVC080 QNH2958INS
BECMG 1911/1912 28015G25KT 9999 NSW BKN012 QNH2963INS TX25/1817Z TN20/1911Z
KZJX FIR / North America



MET'MAP, your aeronautical weather chart ! - Copyright ORBIFLY December 2007 - Disclaimer

ORBIFLY MET'MAP TEAM :

Programming & Development : Alexandra Zaïnal
Concept & Development : Baudouin d'Aumeries
Co-Development & Prog : Marc-Olivier Méhu
Technical & hardware support : Manuel Goepfert

Contact : metmap@orbifly.com




SOURCES & CREDITS :

   NOAA       Earth
Advisory